createdAt,value
2022-10-05T00:04:11.833Z,1002.61
2022-10-05T00:09:56.196Z,1002.56
2022-10-05T00:15:39.571Z,1002.55
2022-10-05T00:21:24.211Z,1002.57
2022-10-05T00:27:12.726Z,1002.55
2022-10-05T00:33:00.473Z,1002.62
2022-10-05T00:38:44.056Z,1002.57
2022-10-05T00:44:32.608Z,1002.63
2022-10-05T00:50:27.062Z,1002.65
2022-10-05T00:56:15.182Z,1002.56
2022-10-05T01:02:01.566Z,1002.63
2022-10-05T01:07:47.637Z,1002.66
2022-10-05T01:13:35.002Z,1002.41
2022-10-05T01:19:26.129Z,1002.28
2022-10-05T01:25:18.075Z,1002.24
2022-10-05T01:31:06.856Z,1002.2
2022-10-05T01:36:56.499Z,1002.23
2022-10-05T01:42:46.916Z,1002.15
2022-10-05T01:48:35.879Z,1002.1
2022-10-05T01:54:25.640Z,1002.02
2022-10-05T02:00:10.287Z,1002
2022-10-05T02:05:57.750Z,1001.99
2022-10-05T02:11:43.219Z,1001.89
2022-10-05T02:17:28.654Z,1001.91
2022-10-05T02:23:15.031Z,1001.86
2022-10-05T02:29:00.072Z,1001.75
2022-10-05T02:34:44.160Z,1001.7
2022-10-05T02:40:33.171Z,1001.66
2022-10-05T02:46:20.298Z,1001.64
2022-10-05T02:52:07.221Z,1001.59
2022-10-05T02:57:55.151Z,1001.58
2022-10-05T03:03:41.086Z,1001.58
2022-10-05T03:09:28.065Z,1001.48
2022-10-05T03:15:16.784Z,1001.47
2022-10-05T03:21:05.538Z,1001.45
2022-10-05T03:26:53.977Z,1001.34
2022-10-05T03:32:42.409Z,1001.35
2022-10-05T03:38:31.071Z,1001.24
2022-10-05T03:44:25.499Z,1001.26
2022-10-05T03:50:19.942Z,1001.29
2022-10-05T03:56:07.085Z,1001.32
2022-10-05T04:01:52.837Z,1001.27
2022-10-05T04:07:40.389Z,1001.19
2022-10-05T04:13:26.818Z,1001.19
2022-10-05T04:19:13.796Z,1001.13
2022-10-05T04:25:00.613Z,1001.08
2022-10-05T04:30:47.070Z,1001.04
2022-10-05T04:36:34.118Z,1000.97
2022-10-05T04:42:22.437Z,1000.94
2022-10-05T04:48:20.891Z,1000.9
2022-10-05T04:54:09.658Z,1000.94
2022-10-05T05:00:01.319Z,1000.86
2022-10-05T05:06:15.728Z,1000.79
2022-10-05T05:11:58.254Z,1000.8
2022-10-05T05:17:48.904Z,1000.7
2022-10-05T05:23:36.167Z,1000.68
2022-10-05T05:29:22.335Z,1000.63
2022-10-05T05:35:13.561Z,1000.54
2022-10-05T05:41:01.174Z,1000.57
2022-10-05T05:47:03.316Z,1000.55
2022-10-05T05:52:50.636Z,1000.56
2022-10-05T05:58:36.124Z,1000.58
2022-10-05T06:04:23.172Z,1000.62
2022-10-05T06:10:11.246Z,1000.59
2022-10-05T06:15:56.435Z,1000.61
2022-10-05T06:21:43.299Z,1000.64
2022-10-05T06:27:35.475Z,1000.6
2022-10-05T06:33:26.415Z,1000.6
2022-10-05T06:39:29.460Z,1000.6
2022-10-05T06:45:17.355Z,1000.57
2022-10-05T06:51:05.242Z,1000.53
2022-10-05T06:56:51.879Z,1000.6
2022-10-05T07:02:39.615Z,1000.56
2022-10-05T07:08:27.997Z,1000.49
2022-10-05T07:14:21.343Z,1000.44
2022-10-05T07:20:09.827Z,1000.43
2022-10-05T07:25:58.039Z,1000.42
2022-10-05T07:31:46.168Z,1000.41
2022-10-05T07:37:34.021Z,1000.47
2022-10-05T07:43:45.557Z,1000.47
2022-10-05T07:49:35.122Z,1000.52
2022-10-05T07:55:20.046Z,1000.56
2022-10-05T08:01:09.048Z,1000.61
2022-10-05T08:06:53.893Z,1000.53
2022-10-05T08:12:42.053Z,1000.53
2022-10-05T08:18:30.809Z,1000.53
2022-10-05T08:24:20.301Z,1000.48
2022-10-05T08:30:05.114Z,1000.48
2022-10-05T08:35:52.270Z,1000.5
2022-10-05T08:41:52.877Z,1000.52
2022-10-05T08:47:56.089Z,1000.47
2022-10-05T08:53:51.927Z,1000.46
2022-10-05T08:59:49.266Z,1000.43
2022-10-05T09:05:50.063Z,1000.32
2022-10-05T09:11:36.686Z,1000.31
2022-10-05T09:17:26.544Z,1000.27
2022-10-05T09:23:13.954Z,1000.26
2022-10-05T09:29:02.157Z,1000.21
2022-10-05T09:35:02.306Z,1000.24
2022-10-05T09:40:58.998Z,1000.23
2022-10-05T09:46:53.584Z,1000.26
2022-10-05T09:52:54.151Z,1000.18
2022-10-05T09:58:54.405Z,1000.24
2022-10-05T10:04:44.921Z,1000.03
2022-10-05T10:10:39.431Z,1000.05
2022-10-05T10:16:27.414Z,999.96
2022-10-05T10:22:27.598Z,999.85
2022-10-05T10:28:21.118Z,999.78
2022-10-05T10:34:10.510Z,999.67
2022-10-05T10:40:02.086Z,999.7
2022-10-05T10:45:57.529Z,999.49
2022-10-05T10:51:51.784Z,999.44
2022-10-05T10:57:41.182Z,999.37
2022-10-05T11:03:41.134Z,999.31
2022-10-05T11:09:32.450Z,999.26
2022-10-05T11:15:28.187Z,999.23
2022-10-05T11:21:26.687Z,999.24
2022-10-05T11:27:19.314Z,999.31
2022-10-05T11:33:14.198Z,999.28
2022-10-05T11:39:23.577Z,999.14
2022-10-05T11:45:24.058Z,999.16
2022-10-05T11:51:29.986Z,999.19
2022-10-05T11:57:16.486Z,999.14
2022-10-05T12:03:11.458Z,999.05
2022-10-05T12:09:01.614Z,998.99
2022-10-05T12:14:52.850Z,998.82
2022-10-05T12:20:41.042Z,998.71
2022-10-05T12:26:26.801Z,998.62
2022-10-05T12:32:16.821Z,998.6
2022-10-05T12:38:02.626Z,998.58
2022-10-05T12:43:52.937Z,998.63
2022-10-05T12:49:43.633Z,998.56
2022-10-05T12:55:30.547Z,998.58
2022-10-05T13:01:18.710Z,998.88
2022-10-05T13:07:13.933Z,998.91
2022-10-05T13:13:02.085Z,998.93
2022-10-05T13:18:52.151Z,999.06
2022-10-05T13:24:38.857Z,999.19
2022-10-05T13:30:22.340Z,999.19
2022-10-05T13:36:11.834Z,999.2
2022-10-05T13:41:59.743Z,999.37
2022-10-05T13:47:48.095Z,999.4
2022-10-05T13:53:36.490Z,999.49
2022-10-05T13:59:25.294Z,999.64
2022-10-05T14:05:15.105Z,999.71
2022-10-05T14:10:58.193Z,999.86
2022-10-05T14:16:44.875Z,1000
2022-10-05T14:22:28.457Z,999.98
2022-10-05T14:28:18.064Z,1000.06
2022-10-05T14:34:06.878Z,1000.06
2022-10-05T14:39:51.115Z,999.93
2022-10-05T14:45:34.398Z,999.99
2022-10-05T14:51:22.627Z,1000.19
2022-10-05T14:57:14.753Z,1000.19
2022-10-05T15:03:12.163Z,1000.22
2022-10-05T15:09:17.220Z,1000.11
2022-10-05T15:15:03.171Z,999.86
2022-10-05T15:20:51.095Z,1000.03
2022-10-05T15:26:39.887Z,1000.1
2022-10-05T15:32:28.419Z,1000.02
2022-10-05T15:38:15.419Z,1000.05
2022-10-05T15:44:03.202Z,1000.05
2022-10-05T15:49:55.096Z,1000.01
2022-10-05T15:55:42.692Z,1000.06
2022-10-05T16:01:31.047Z,999.97
2022-10-05T16:07:19.248Z,1000.16
2022-10-05T16:13:09.111Z,1000.15
2022-10-05T16:18:57.130Z,1000.19
2022-10-05T16:24:51.070Z,1000.27
2022-10-05T16:30:39.224Z,1000.37
2022-10-05T16:36:27.449Z,1000.54
2022-10-05T16:42:15.433Z,1000.53
2022-10-05T16:48:03.326Z,1000.6
2022-10-05T16:53:52.033Z,1000.71
2022-10-05T16:59:48.830Z,1000.73
2022-10-05T17:05:39.657Z,1000.78
2022-10-05T17:11:29.114Z,1000.81
2022-10-05T17:17:29.627Z,1000.88
2022-10-05T17:23:25.609Z,1000.93
2022-10-05T17:29:14.951Z,1001.03
2022-10-05T17:35:19.852Z,1001.16
2022-10-05T17:41:14.712Z,1001.29
2022-10-05T17:46:59.145Z,1001.42
2022-10-05T17:52:43.109Z,1001.46
2022-10-05T17:58:37.763Z,1001.5
2022-10-05T18:04:26.265Z,1001.7
2022-10-05T18:10:27.207Z,1001.68
2022-10-05T18:16:11.677Z,1001.73
2022-10-05T18:22:09.124Z,1001.83
2022-10-05T18:27:59.571Z,1001.83
2022-10-05T18:33:55.626Z,1001.89
2022-10-05T18:39:51.101Z,1001.84
2022-10-05T18:45:39.656Z,1001.92
2022-10-05T18:51:28.662Z,1002.09
2022-10-05T18:57:22.777Z,1001.99
2022-10-05T19:03:10.830Z,1001.92
2022-10-05T19:08:59.277Z,1002.01
2022-10-05T19:14:47.420Z,1002.09
2022-10-05T19:20:32.732Z,1002.14
2022-10-05T19:26:23.479Z,1002.23
2022-10-05T19:32:11.939Z,1002.28
2022-10-05T19:38:01.055Z,1002.55
2022-10-05T19:43:50.842Z,1002.68
2022-10-05T19:49:41.391Z,1003.16
2022-10-05T19:55:32.433Z,1003.84
2022-10-05T20:01:20.752Z,1003.88
2022-10-05T20:07:04.882Z,1004.06
2022-10-05T20:12:54.746Z,1003.93
2022-10-05T20:18:46.687Z,1004.11
2022-10-05T20:24:30.352Z,1004.06
2022-10-05T20:30:14.719Z,1004.33
2022-10-05T20:35:58.115Z,1004.38
2022-10-05T20:41:41.355Z,1004.53
2022-10-05T20:47:25.062Z,1004.65
2022-10-05T20:53:12.830Z,1004.88
2022-10-05T20:58:56.523Z,1004.92
2022-10-05T21:04:43.126Z,1005
2022-10-05T21:10:26.639Z,1005.13
2022-10-05T21:16:10.033Z,1005.19
2022-10-05T21:21:53.400Z,1005.35
2022-10-05T21:27:36.693Z,1005.56
2022-10-05T21:33:20.020Z,1005.4
2022-10-05T21:39:03.263Z,1005.49
2022-10-05T21:44:46.589Z,1005.81
2022-10-05T21:50:29.874Z,1006.21
2022-10-05T21:56:14.924Z,1006.13
2022-10-05T22:01:58.502Z,1006.24
2022-10-05T22:07:41.716Z,1006.34
2022-10-05T22:13:25.756Z,1006.4
2022-10-05T22:19:13.428Z,1006.5
2022-10-05T22:24:56.695Z,1006.64
2022-10-05T22:30:40.561Z,1006.68
2022-10-05T22:36:23.884Z,1006.8
2022-10-05T22:42:07.341Z,1006.87
2022-10-05T22:47:50.833Z,1006.94
2022-10-05T22:53:34.082Z,1007.1
2022-10-05T22:59:17.402Z,1007.14
2022-10-05T23:05:00.494Z,1007.14
2022-10-05T23:10:43.734Z,1007.14
2022-10-05T23:16:28.910Z,1007.28
2022-10-05T23:22:12.839Z,1007.39
2022-10-05T23:27:56.147Z,1007.48
2022-10-05T23:33:39.499Z,1007.7
2022-10-05T23:39:23.587Z,1007.78
2022-10-05T23:45:07.270Z,1007.79
2022-10-05T23:50:50.376Z,1007.78
2022-10-05T23:56:33.654Z,1007.91
